createdAt,value
2023-03-10T00:02:08.061Z,3.30
2023-03-10T00:04:37.711Z,4.47
2023-03-10T00:07:07.386Z,4.97
2023-03-10T00:09:37.516Z,5.03
2023-03-10T00:12:08.947Z,4.70
2023-03-10T00:14:40.426Z,3.70
2023-03-10T00:17:10.060Z,4.65
2023-03-10T00:19:39.728Z,4.22
2023-03-10T00:22:09.131Z,3.38
2023-03-10T00:24:38.690Z,6.15
2023-03-10T00:27:08.414Z,4.13
2023-03-10T00:29:39.838Z,3.30
2023-03-10T00:32:09.866Z,3.33
2023-03-10T00:34:39.666Z,3.08
2023-03-10T00:37:10.366Z,3.08
2023-03-10T00:39:39.996Z,2.78
2023-03-10T00:42:09.607Z,3.15
2023-03-10T00:44:41.446Z,6.00
2023-03-10T00:47:10.924Z,4.28
2023-03-10T00:49:40.500Z,3.63
2023-03-10T00:52:10.144Z,4.13
2023-03-10T00:54:41.900Z,5.72
2023-03-10T00:57:11.468Z,8.30
2023-03-10T00:59:50.458Z,4.40
2023-03-10T01:02:21.096Z,4.10
2023-03-10T01:04:50.829Z,3.95
2023-03-10T01:07:20.278Z,4.05
2023-03-10T01:09:49.726Z,7.05
2023-03-10T01:12:20.619Z,4.57
2023-03-10T01:14:51.512Z,5.50
2023-03-10T01:17:21.193Z,2.85
2023-03-10T01:19:50.571Z,6.05
2023-03-10T01:22:19.988Z,2.17
2023-03-10T01:24:49.521Z,2.95
2023-03-10T01:27:18.947Z,4.97
2023-03-10T01:29:49.765Z,2.72
2023-03-10T01:32:19.283Z,6.28
2023-03-10T01:34:48.793Z,2.90
2023-03-10T01:37:18.846Z,3.17
2023-03-10T01:39:48.256Z,5.50
2023-03-10T01:42:17.927Z,4.85
2023-03-10T01:45:10.976Z,5.43
2023-03-10T01:47:40.631Z,3.65
2023-03-10T01:50:16.752Z,4.35
2023-03-10T01:52:56.572Z,3.45
2023-03-10T01:55:32.140Z,3.70
2023-03-10T01:58:02.098Z,4.47
2023-03-10T02:00:33.068Z,4.40
2023-03-10T02:03:11.624Z,3.38
2023-03-10T02:05:47.896Z,3.00
2023-03-10T02:08:19.576Z,3.25
2023-03-10T02:10:50.934Z,2.17
2023-03-10T02:13:20.432Z,2.28
2023-03-10T02:15:53.030Z,2.60
2023-03-10T02:18:23.851Z,6.07
2023-03-10T02:21:07.976Z,2.80
2023-03-10T02:24:00.247Z,2.70
2023-03-10T02:26:47.084Z,2.67
2023-03-10T02:29:25.390Z,3.20
2023-03-10T02:31:57.481Z,5.60
2023-03-10T02:34:28.233Z,3.15
2023-03-10T02:36:57.888Z,5.97
2023-03-10T02:39:27.966Z,2.00
2023-03-10T02:41:57.823Z,3.47
2023-03-10T02:44:29.100Z,2.88
2023-03-10T02:46:58.627Z,4.60
2023-03-10T02:49:28.954Z,5.50
2023-03-10T02:52:00.506Z,3.00
2023-03-10T02:54:29.912Z,3.88
2023-03-10T02:56:59.381Z,3.47
2023-03-10T02:59:30.401Z,4.22
2023-03-10T03:01:59.945Z,3.63
2023-03-10T03:04:29.427Z,3.97
2023-03-10T03:06:58.931Z,2.83
2023-03-10T03:09:29.076Z,3.75
2023-03-10T03:11:59.972Z,4.85
2023-03-10T03:14:30.778Z,3.72
2023-03-10T03:17:00.386Z,5.68
2023-03-10T03:19:30.149Z,2.60
2023-03-10T03:22:00.598Z,2.55
2023-03-10T03:24:32.095Z,2.60
2023-03-10T03:27:01.605Z,4.10
2023-03-10T03:29:33.238Z,3.08
2023-03-10T03:32:02.860Z,2.47
2023-03-10T03:34:35.744Z,2.25
2023-03-10T03:37:07.732Z,3.15
2023-03-10T03:39:40.918Z,4.20
2023-03-10T03:42:11.593Z,2.42
2023-03-10T03:44:56.659Z,3.95
2023-03-10T03:47:26.063Z,1.55
2023-03-10T03:49:55.453Z,3.35
2023-03-10T03:52:24.855Z,1.50
2023-03-10T03:54:54.887Z,2.72
2023-03-10T03:57:24.983Z,3.17
2023-03-10T03:59:56.461Z,1.70
2023-03-10T04:02:26.284Z,4.05
2023-03-10T04:04:56.164Z,2.35
2023-03-10T04:07:25.681Z,1.65
2023-03-10T04:09:55.220Z,3.58
2023-03-10T04:12:25.263Z,1.80
2023-03-10T04:14:56.269Z,1.13
2023-03-10T04:17:25.787Z,1.55
2023-03-10T04:20:06.556Z,1.30
2023-03-10T04:22:38.560Z,4.45
2023-03-10T04:25:10.451Z,2.80
2023-03-10T04:27:39.898Z,1.77
2023-03-10T04:30:15.081Z,3.50
2023-03-10T04:32:49.387Z,3.00
2023-03-10T04:35:20.513Z,1.55
2023-03-10T04:37:49.938Z,2.40
2023-03-10T04:40:20.143Z,3.38
2023-03-10T04:42:50.670Z,2.80
2023-03-10T04:45:21.811Z,3.05
2023-03-10T04:47:51.295Z,1.45
2023-03-10T04:50:21.045Z,2.30
2023-03-10T04:52:51.638Z,2.42
2023-03-10T04:55:25.481Z,4.60
2023-03-10T04:57:55.493Z,2.63
2023-03-10T05:00:26.603Z,2.40
2023-03-10T05:02:56.557Z,4.75
2023-03-10T05:05:26.115Z,3.25
2023-03-10T05:07:55.553Z,2.63
2023-03-10T05:10:25.003Z,2.50
2023-03-10T05:12:54.392Z,3.97
2023-03-10T05:15:25.689Z,2.83
2023-03-10T05:17:55.102Z,1.65
2023-03-10T05:20:24.993Z,2.03
2023-03-10T05:22:54.573Z,2.65
2023-03-10T05:25:24.168Z,2.85
2023-03-10T05:27:53.910Z,2.78
2023-03-10T05:30:25.049Z,2.00
2023-03-10T05:32:57.411Z,3.17
2023-03-10T05:35:27.002Z,3.03
2023-03-10T05:37:56.481Z,4.07
2023-03-10T05:40:26.389Z,3.47
2023-03-10T05:42:55.852Z,3.47
2023-03-10T05:45:27.473Z,3.92
2023-03-10T05:47:57.019Z,1.92
2023-03-10T05:50:27.240Z,1.77
2023-03-10T05:52:58.993Z,1.85
2023-03-10T05:55:29.739Z,2.30
2023-03-10T05:57:59.250Z,1.75
2023-03-10T06:00:30.442Z,2.55
2023-03-10T06:03:04.488Z,3.00
2023-03-10T06:05:33.907Z,3.25
2023-03-10T06:08:03.438Z,2.47
2023-03-10T06:10:32.861Z,2.53
2023-03-10T06:13:02.276Z,1.73
2023-03-10T06:15:33.064Z,1.73
2023-03-10T06:18:02.715Z,1.10
2023-03-10T06:20:32.253Z,3.00
2023-03-10T06:23:01.672Z,1.10
2023-03-10T06:25:31.073Z,1.42
2023-03-10T06:28:00.462Z,2.25
2023-03-10T06:30:30.092Z,1.60
2023-03-10T06:33:02.713Z,2.20
2023-03-10T06:35:33.378Z,2.03
2023-03-10T06:38:02.764Z,1.60
2023-03-10T06:40:32.220Z,1.67
2023-03-10T06:43:01.810Z,1.63
2023-03-10T06:45:31.249Z,1.25
2023-03-10T06:48:02.068Z,1.90
2023-03-10T06:50:42.919Z,1.63
2023-03-10T06:53:12.876Z,0.70
2023-03-10T06:55:42.300Z,1.60
2023-03-10T06:58:12.024Z,0.65
2023-03-10T07:00:41.452Z,2.40
2023-03-10T07:03:12.804Z,1.38
2023-03-10T07:05:42.190Z,1.30
2023-03-10T07:08:11.559Z,1.30
2023-03-10T07:10:41.037Z,1.17
2023-03-10T07:13:13.768Z,1.75
2023-03-10T07:15:43.378Z,1.38
2023-03-10T07:18:14.972Z,1.77
2023-03-10T07:20:47.765Z,2.25
2023-03-10T07:23:17.496Z,0.98
2023-03-10T07:25:47.068Z,2.55
2023-03-10T07:28:16.608Z,3.40
2023-03-10T07:30:46.264Z,2.15
2023-03-10T07:33:17.837Z,1.73
2023-03-10T07:35:47.448Z,1.45
2023-03-10T07:38:16.919Z,2.95
2023-03-10T07:40:46.324Z,3.13
2023-03-10T07:43:15.734Z,1.63
2023-03-10T07:45:45.457Z,3.83
2023-03-10T07:48:16.386Z,1.95
2023-03-10T07:50:45.816Z,3.13
2023-03-10T07:53:15.233Z,2.38
2023-03-10T07:55:44.625Z,2.10
2023-03-10T07:58:14.055Z,2.30
2023-03-10T08:00:43.661Z,1.92
2023-03-10T08:03:13.156Z,2.40
2023-03-10T08:05:44.310Z,4.22
2023-03-10T08:08:13.745Z,1.42
2023-03-10T08:10:43.386Z,3.40
2023-03-10T08:13:13.168Z,1.83
2023-03-10T08:15:43.035Z,2.75
2023-03-10T08:18:12.993Z,2.33
2023-03-10T08:20:43.865Z,3.63
2023-03-10T08:23:13.256Z,2.58
2023-03-10T08:25:42.690Z,1.65
2023-03-10T08:28:12.125Z,3.30
2023-03-10T08:31:00.877Z,1.88
2023-03-10T08:33:31.501Z,2.13
2023-03-10T08:36:09.404Z,2.90
2023-03-10T08:38:39.012Z,3.53
2023-03-10T08:41:16.186Z,2.13
2023-03-10T08:43:49.040Z,4.32
2023-03-10T08:48:50.631Z,1.80
2023-03-10T08:51:22.799Z,2.65
2023-03-10T08:53:56.135Z,5.40
2023-03-10T08:56:26.736Z,4.72
2023-03-10T08:58:59.007Z,4.63
2023-03-10T09:01:33.838Z,4.83
2023-03-10T09:04:05.815Z,2.90
2023-03-10T09:06:37.679Z,3.17
2023-03-10T09:09:10.063Z,3.97
2023-03-10T09:11:42.158Z,4.63
2023-03-10T09:14:16.982Z,2.58
2023-03-10T09:16:46.805Z,3.58
2023-03-10T09:19:16.369Z,3.28
2023-03-10T09:21:47.787Z,1.52
2023-03-10T09:24:18.042Z,3.20
2023-03-10T09:26:47.471Z,2.20
2023-03-10T09:29:17.584Z,5.03
2023-03-10T09:31:48.350Z,1.70
2023-03-10T09:34:17.891Z,1.95
2023-03-10T09:36:48.652Z,2.10
2023-03-10T09:39:18.054Z,1.88
2023-03-10T09:42:36.504Z,0.93
2023-03-10T09:45:25.026Z,3.05
2023-03-10T09:48:36.121Z,2.15
2023-03-10T09:51:17.138Z,1.25
2023-03-10T09:54:09.598Z,0.75
2023-03-10T09:56:39.259Z,1.83
2023-03-10T09:59:16.582Z,1.48
2023-03-10T10:01:50.818Z,1.17
2023-03-10T10:04:29.369Z,2.40
2023-03-10T10:06:59.702Z,3.03
2023-03-10T10:09:42.128Z,0.35
2023-03-10T10:12:15.739Z,0.77
2023-03-10T10:14:56.639Z,2.63
2023-03-10T10:17:52.957Z,0.50
2023-03-10T10:20:30.456Z,2.90
2023-03-10T10:22:59.984Z,6.55
2023-03-10T10:25:33.279Z,1.13
2023-03-10T10:28:06.269Z,0.47
2023-03-10T10:30:40.211Z,2.85
2023-03-10T10:33:13.121Z,0.52
2023-03-10T10:35:46.186Z,1.40
2023-03-10T10:41:07.832Z,0.35
2023-03-10T10:43:43.709Z,0.20
2023-03-10T10:46:17.792Z,1.40
2023-03-10T10:48:51.435Z,1.10
2023-03-10T10:51:28.800Z,0.85
2023-03-10T10:53:59.886Z,0.68
2023-03-10T10:56:31.108Z,1.05
2023-03-10T10:59:09.076Z,2.08
2023-03-10T11:01:53.540Z,0.73
2023-03-10T11:04:25.498Z,1.65
2023-03-10T11:07:12.998Z,1.83
2023-03-10T11:09:42.937Z,2.55
2023-03-10T11:12:22.076Z,1.30
2023-03-10T11:15:07.910Z,1.27
2023-03-10T11:17:48.491Z,1.48
2023-03-10T11:20:32.772Z,1.15
2023-03-10T11:23:18.872Z,1.48
2023-03-10T11:25:54.674Z,2.33
2023-03-10T11:28:43.700Z,1.65
2023-03-10T11:31:36.136Z,0.82
2023-03-10T11:34:20.692Z,1.27
2023-03-10T11:37:02.022Z,2.08
2023-03-10T11:39:48.975Z,2.72
2023-03-10T11:42:30.528Z,2.22
2023-03-10T11:45:27.690Z,1.52
2023-03-10T11:48:17.406Z,1.23
2023-03-10T11:50:53.314Z,0.95
2023-03-10T11:53:36.862Z,2.08
2023-03-10T11:56:12.475Z,0.88
2023-03-10T11:58:49.289Z,0.75
2023-03-10T12:01:26.492Z,1.45
2023-03-10T12:04:07.134Z,1.73
2023-03-10T12:06:44.737Z,1.45
2023-03-10T12:09:31.174Z,1.30
2023-03-10T12:12:05.107Z,0.50
2023-03-10T12:14:35.811Z,0.47
2023-03-10T12:17:07.107Z,1.00
2023-03-10T12:20:24.218Z,1.38
2023-03-10T12:22:54.998Z,2.05
2023-03-10T12:25:45.997Z,0.70
2023-03-10T12:28:28.302Z,2.75
2023-03-10T12:31:01.108Z,0.93
2023-03-10T12:33:52.327Z,2.20
2023-03-10T12:36:36.406Z,1.02
2023-03-10T12:39:47.787Z,1.40
2023-03-10T12:42:32.077Z,3.53
2023-03-10T12:45:24.226Z,2.22
2023-03-10T12:48:04.435Z,0.45
2023-03-10T12:50:47.432Z,0.50
2023-03-10T12:53:33.886Z,1.20
2023-03-10T12:56:36.650Z,0.90
2023-03-10T12:59:18.352Z,0.15
2023-03-10T13:01:55.946Z,1.48
2023-03-10T13:04:28.237Z,0.47
2023-03-10T13:07:03.551Z,0.73
2023-03-10T13:09:41.205Z,0.65
2023-03-10T13:12:21.459Z,0.40
2023-03-10T13:14:58.648Z,1.15
2023-03-10T13:17:31.227Z,0.65
2023-03-10T13:20:13.026Z,2.00
2023-03-10T13:22:55.309Z,1.15
2023-03-10T13:25:26.058Z,1.50
2023-03-10T13:27:57.448Z,1.42
2023-03-10T13:30:28.454Z,1.23
2023-03-10T13:33:01.380Z,1.10
2023-03-10T13:35:35.837Z,0.68
2023-03-10T13:38:13.544Z,3.92
2023-03-10T13:40:46.107Z,0.43
2023-03-10T13:43:37.061Z,0.10
2023-03-10T13:46:16.076Z,1.40
2023-03-10T13:48:47.124Z,0.20
2023-03-10T13:51:24.552Z,0.17
2023-03-10T13:54:00.203Z,1.25
2023-03-10T13:56:37.272Z,0.60
2023-03-10T13:59:07.855Z,0.10
2023-03-10T14:01:45.685Z,0.52
2023-03-10T14:04:20.291Z,0.32
2023-03-10T14:07:09.930Z,1.27
2023-03-10T14:09:41.406Z,0.17
2023-03-10T14:12:12.681Z,0.20
2023-03-10T14:14:42.856Z,1.42
2023-03-10T14:17:35.102Z,0.52
2023-03-10T14:20:08.267Z,0.17
2023-03-10T14:25:19.622Z,0.80
2023-03-10T14:27:56.084Z,0.63
2023-03-10T14:30:29.300Z,0.50
2023-03-10T14:33:01.860Z,0.52
2023-03-10T14:35:31.651Z,4.18
2023-03-10T14:38:01.046Z,1.55
2023-03-10T14:40:43.931Z,0.55
2023-03-10T14:43:18.610Z,0.10
2023-03-10T14:45:50.338Z,0.70
2023-03-10T14:48:23.688Z,0.22
2023-03-10T14:50:56.298Z,0.43
2023-03-10T14:56:02.516Z,0.50
2023-03-10T14:58:36.290Z,0.32
2023-03-10T15:01:07.472Z,1.10
2023-03-10T15:03:36.936Z,0.45
2023-03-10T15:06:06.975Z,2.13
2023-03-10T15:08:36.515Z,0.82
2023-03-10T15:11:08.132Z,0.93
2023-03-10T15:13:39.220Z,1.40
2023-03-10T15:16:13.195Z,0.52
2023-03-10T15:18:42.654Z,1.83
2023-03-10T15:21:13.861Z,0.77
2023-03-10T15:23:43.333Z,0.10
2023-03-10T15:26:14.597Z,0.10
2023-03-10T15:28:44.080Z,1.27
2023-03-10T15:31:13.536Z,0.10
2023-03-10T15:33:42.952Z,1.35
2023-03-10T15:36:12.549Z,0.35
2023-03-10T15:38:41.952Z,0.32
2023-03-10T15:41:13.470Z,0.43
2023-03-10T15:43:42.897Z,1.15
2023-03-10T15:46:13.421Z,0.98
2023-03-10T15:48:42.995Z,1.17
2023-03-10T15:51:17.435Z,0.88
2023-03-10T15:53:46.967Z,0.73
2023-03-10T15:56:18.061Z,0.40
2023-03-10T15:58:47.672Z,0.45
2023-03-10T16:01:20.861Z,1.02
2023-03-10T16:06:19.477Z,1.08
2023-03-10T16:08:48.880Z,0.88
2023-03-10T16:11:21.847Z,0.55
2023-03-10T16:13:51.284Z,0.43
2023-03-10T16:16:23.999Z,0.70
2023-03-10T16:18:54.060Z,1.27
2023-03-10T16:21:23.499Z,0.30
2023-03-10T16:23:53.815Z,0.98
2023-03-10T16:26:25.923Z,0.47
2023-03-10T16:28:56.312Z,0.40
2023-03-10T16:31:27.796Z,0.75
2023-03-10T16:33:58.558Z,2.28
2023-03-10T16:36:30.331Z,1.15
2023-03-10T16:39:00.146Z,0.85
2023-03-10T16:41:31.067Z,2.13
2023-03-10T16:44:04.732Z,1.58
2023-03-10T16:46:34.770Z,0.43
2023-03-10T16:49:04.679Z,0.43
2023-03-10T16:51:37.882Z,0.52
2023-03-10T16:56:44.161Z,1.00
2023-03-10T16:59:18.280Z,1.20
2023-03-10T17:01:49.889Z,1.63
2023-03-10T17:04:20.895Z,1.27
2023-03-10T17:06:50.415Z,2.03
2023-03-10T17:09:19.854Z,2.17
2023-03-10T17:11:55.367Z,6.38
2023-03-10T17:14:25.434Z,3.05
2023-03-10T17:16:56.253Z,2.08
2023-03-10T17:19:29.777Z,7.07
2023-03-10T17:22:00.249Z,1.17
2023-03-10T17:24:31.245Z,0.93
2023-03-10T17:27:02.110Z,2.80
2023-03-10T17:29:31.642Z,4.85
2023-03-10T17:32:01.031Z,2.15
2023-03-10T17:34:30.626Z,4.53
2023-03-10T17:37:00.135Z,4.60
2023-03-10T17:39:30.106Z,4.00
2023-03-10T17:42:00.998Z,3.05
2023-03-10T17:44:30.455Z,2.95
2023-03-10T17:47:00.018Z,6.57
2023-03-10T17:49:29.408Z,4.57
2023-03-10T17:51:58.838Z,6.30
2023-03-10T17:54:28.321Z,3.38
2023-03-10T17:56:57.793Z,5.00
2023-03-10T17:59:38.919Z,3.83
2023-03-10T18:02:08.632Z,4.05
2023-03-10T18:04:40.040Z,5.32
2023-03-10T18:07:09.458Z,6.95
2023-03-10T18:09:39.972Z,2.95
2023-03-10T18:12:10.149Z,3.58
2023-03-10T18:14:40.961Z,4.78
2023-03-10T18:17:10.345Z,3.22
2023-03-10T18:19:39.777Z,10.38
2023-03-10T18:22:09.264Z,4.75
2023-03-10T18:24:39.748Z,6.18
2023-03-10T18:27:09.152Z,6.07
2023-03-10T18:29:40.248Z,2.40
2023-03-10T18:32:09.689Z,5.32
2023-03-10T18:34:39.221Z,6.43
2023-03-10T18:37:08.666Z,5.97
2023-03-10T18:39:41.264Z,6.07
2023-03-10T18:42:11.746Z,3.95
2023-03-10T18:44:46.577Z,7.30
2023-03-10T18:47:16.010Z,7.88
2023-03-10T18:49:45.470Z,1.80
2023-03-10T18:52:16.209Z,1.60
2023-03-10T18:54:47.333Z,2.08
2023-03-10T18:57:17.190Z,3.05
2023-03-10T18:59:47.976Z,2.35
2023-03-10T19:02:17.604Z,1.77
2023-03-10T19:04:47.824Z,1.70
2023-03-10T19:07:20.360Z,6.35
2023-03-10T19:09:54.836Z,3.95
2023-03-10T19:12:24.912Z,2.58
2023-03-10T19:14:56.509Z,5.22
2023-03-10T19:17:26.597Z,4.90
2023-03-10T19:19:55.996Z,3.08
2023-03-10T19:22:25.383Z,4.45
2023-03-10T19:24:55.268Z,4.00
2023-03-10T19:27:24.647Z,3.92
2023-03-10T19:29:55.640Z,5.20
2023-03-10T19:32:26.329Z,6.75
2023-03-10T19:34:55.722Z,7.38
2023-03-10T19:37:25.097Z,8.38
2023-03-10T19:39:54.876Z,6.32
2023-03-10T19:42:24.429Z,8.52
2023-03-10T19:44:55.495Z,4.72
2023-03-10T19:47:24.948Z,3.72
2023-03-10T19:49:54.605Z,6.82
2023-03-10T19:52:24.677Z,9.40
2023-03-10T19:54:54.113Z,9.40
2023-03-10T19:57:23.556Z,7.68
2023-03-10T19:59:55.276Z,7.45
2023-03-10T20:02:25.878Z,6.72
2023-03-10T20:04:55.440Z,4.32
2023-03-10T20:07:24.865Z,6.20
2023-03-10T20:09:54.268Z,7.60
2023-03-10T20:12:23.790Z,4.43
2023-03-10T20:14:58.537Z,4.50
2023-03-10T20:17:29.371Z,5.20
2023-03-10T20:19:58.812Z,7.05
2023-03-10T20:22:28.247Z,3.03
2023-03-10T20:24:57.682Z,6.55
2023-03-10T20:27:27.282Z,4.15
2023-03-10T20:29:56.688Z,7.03
2023-03-10T20:32:26.131Z,4.78
2023-03-10T20:34:56.975Z,6.80
2023-03-10T20:37:26.461Z,7.22
2023-03-10T20:39:55.898Z,6.72
2023-03-10T20:42:25.419Z,4.25
2023-03-10T20:44:54.881Z,3.28
2023-03-10T20:47:24.280Z,8.95
2023-03-10T20:49:53.623Z,3.95
2023-03-10T20:52:24.594Z,7.18
2023-03-10T20:54:55.202Z,6.38
2023-03-10T20:57:24.581Z,4.93
2023-03-10T20:59:55.678Z,5.10
2023-03-10T21:02:25.311Z,4.28
2023-03-10T21:04:56.150Z,2.33
2023-03-10T21:07:26.988Z,2.22
2023-03-10T21:09:58.015Z,4.40
2023-03-10T21:12:27.703Z,4.53
2023-03-10T21:14:57.082Z,3.28
2023-03-10T21:17:27.269Z,2.05
2023-03-10T21:19:56.784Z,4.90
2023-03-10T21:22:30.289Z,6.43
2023-03-10T21:25:00.168Z,2.13
2023-03-10T21:27:30.945Z,1.98
2023-03-10T21:30:01.685Z,3.78
2023-03-10T21:32:31.188Z,3.03
2023-03-10T21:35:00.825Z,2.05
2023-03-10T21:37:32.172Z,1.85
2023-03-10T21:40:01.716Z,3.38
2023-03-10T21:42:31.258Z,2.60
2023-03-10T21:45:00.672Z,3.70
2023-03-10T21:47:30.043Z,3.25
2023-03-10T21:49:59.469Z,3.97
2023-03-10T21:52:28.918Z,2.85
2023-03-10T21:54:59.692Z,3.85
2023-03-10T21:57:29.094Z,2.42
2023-03-10T21:59:58.530Z,2.90
2023-03-10T22:02:31.465Z,2.55
2023-03-10T22:05:00.924Z,3.33
2023-03-10T22:07:30.521Z,5.95
2023-03-10T22:10:01.358Z,1.98
2023-03-10T22:12:30.847Z,3.85
2023-03-10T22:15:00.501Z,3.92
2023-03-10T22:17:29.961Z,1.38
2023-03-10T22:19:59.362Z,1.98
2023-03-10T22:22:29.209Z,2.30
2023-03-10T22:25:00.015Z,1.65
2023-03-10T22:27:29.376Z,3.72
2023-03-10T22:29:58.849Z,2.65
2023-03-10T22:32:28.408Z,2.05
2023-03-10T22:34:58.087Z,4.35
2023-03-10T22:37:27.684Z,2.95
2023-03-10T22:39:57.088Z,1.35
2023-03-10T22:42:27.854Z,1.55
2023-03-10T22:44:57.268Z,1.33
2023-03-10T22:47:26.780Z,1.65
2023-03-10T22:49:56.223Z,1.17
2023-03-10T22:52:25.631Z,1.80
2023-03-10T22:54:55.044Z,1.92
2023-03-10T22:57:24.428Z,1.35
2023-03-10T22:59:55.123Z,1.95
2023-03-10T23:02:24.472Z,2.58
2023-03-10T23:04:53.874Z,1.27
2023-03-10T23:07:23.376Z,3.45
2023-03-10T23:09:52.804Z,2.17
2023-03-10T23:12:22.229Z,2.83
2023-03-10T23:14:51.665Z,1.58
2023-03-10T23:17:22.548Z,1.90
2023-03-10T23:19:55.761Z,1.33
2023-03-10T23:22:25.790Z,1.45
2023-03-10T23:24:55.496Z,1.52
2023-03-10T23:27:24.865Z,1.25
2023-03-10T23:29:54.227Z,1.95
2023-03-10T23:32:25.171Z,0.75
2023-03-10T23:34:54.581Z,1.25
2023-03-10T23:37:24.480Z,2.53
2023-03-10T23:39:53.915Z,0.95
2023-03-10T23:42:23.284Z,0.80
2023-03-10T23:44:52.754Z,1.50
2023-03-10T23:47:22.160Z,1.35
2023-03-10T23:49:52.853Z,1.35
2023-03-10T23:52:22.506Z,1.45
2023-03-10T23:54:51.890Z,2.53
2023-03-10T23:57:21.357Z,1.25
2023-03-10T23:59:50.891Z,1.40
